sensor_id;sensor_type;location;lat;lon;timestamp;temperature;humidity
14798;DHT22;7490;63.708;20.368;2023-02-26T00:02:07;1.30;78.40
14798;DHT22;7490;63.708;20.368;2023-02-26T00:04:35;1.20;78.30
14798;DHT22;7490;63.708;20.368;2023-02-26T00:07:01;1.10;78.30
14798;DHT22;7490;63.708;20.368;2023-02-26T00:09:29;1.00;78.30
14798;DHT22;7490;63.708;20.368;2023-02-26T00:11:55;0.90;78.30
14798;DHT22;7490;63.708;20.368;2023-02-26T00:14:21;0.80;78.10
14798;DHT22;7490;63.708;20.368;2023-02-26T00:16:50;0.70;78.10
14798;DHT22;7490;63.708;20.368;2023-02-26T00:19:19;0.60;78.20
14798;DHT22;7490;63.708;20.368;2023-02-26T00:21:45;0.50;78.20
14798;DHT22;7490;63.708;20.368;2023-02-26T00:24:10;0.40;78.20
14798;DHT22;7490;63.708;20.368;2023-02-26T00:26:36;0.30;78.30
14798;DHT22;7490;63.708;20.368;2023-02-26T00:29:03;0.20;78.40
14798;DHT22;7490;63.708;20.368;2023-02-26T00:31:29;0.20;78.70
14798;DHT22;7490;63.708;20.368;2023-02-26T00:33:55;0.10;78.60
14798;DHT22;7490;63.708;20.368;2023-02-26T00:42:02;-0.10;78.70
14798;DHT22;7490;63.708;20.368;2023-02-26T00:44:28;-0.20;78.70
14798;DHT22;7490;63.708;20.368;2023-02-26T00:47:24;-0.30;78.90
14798;DHT22;7490;63.708;20.368;2023-02-26T00:50:19;-0.30;79.10
14798;DHT22;7490;63.708;20.368;2023-02-26T00:55:29;-0.40;79.00
14798;DHT22;7490;63.708;20.368;2023-02-26T00:57:55;-0.50;79.00
14798;DHT22;7490;63.708;20.368;2023-02-26T01:00:21;-0.50;79.20
14798;DHT22;7490;63.708;20.368;2023-02-26T01:02:47;-0.50;79.80
14798;DHT22;7490;63.708;20.368;2023-02-26T01:05:14;-0.40;80.20
14798;DHT22;7490;63.708;20.368;2023-02-26T01:10:29;-0.20;80.70
14798;DHT22;7490;63.708;20.368;2023-02-26T01:12:54;0.00;80.70
14798;DHT22;7490;63.708;20.368;2023-02-26T01:15:22;0.10;80.70
14798;DHT22;7490;63.708;20.368;2023-02-26T01:21:04;0.40;80.70
14798;DHT22;7490;63.708;20.368;2023-02-26T01:23:33;0.50;80.60
14798;DHT22;7490;63.708;20.368;2023-02-26T01:26:06;0.60;80.60
14798;DHT22;7490;63.708;20.368;2023-02-26T01:28:32;0.70;80.50
14798;DHT22;7490;63.708;20.368;2023-02-26T01:31:02;0.80;80.40
14798;DHT22;7490;63.708;20.368;2023-02-26T01:33:52;0.90;80.40
14798;DHT22;7490;63.708;20.368;2023-02-26T01:36:23;1.00;80.40
14798;DHT22;7490;63.708;20.368;2023-02-26T01:39:22;1.30;80.60
14798;DHT22;7490;63.708;20.368;2023-02-26T01:41:53;1.10;81.20
14798;DHT22;7490;63.708;20.368;2023-02-26T01:50:15;1.30;81.30
14798;DHT22;7490;63.708;20.368;2023-02-26T01:55:24;1.40;80.50
14798;DHT22;7490;63.708;20.368;2023-02-26T01:57:52;1.50;80.50
14798;DHT22;7490;63.708;20.368;2023-02-26T02:00:19;1.70;80.70
14798;DHT22;7490;63.708;20.368;2023-02-26T02:02:45;1.50;80.50
14798;DHT22;7490;63.708;20.368;2023-02-26T02:05:39;1.50;80.60
14798;DHT22;7490;63.708;20.368;2023-02-26T02:08:02;1.60;80.70
14798;DHT22;7490;63.708;20.368;2023-02-26T02:10:28;1.60;80.70
14798;DHT22;7490;63.708;20.368;2023-02-26T02:13:09;1.60;80.70
14798;DHT22;7490;63.708;20.368;2023-02-26T02:18:33;1.70;80.90
14798;DHT22;7490;63.708;20.368;2023-02-26T02:24:16;1.80;80.80
14798;DHT22;7490;63.708;20.368;2023-02-26T02:29:49;1.90;80.80
14798;DHT22;7490;63.708;20.368;2023-02-26T02:32:27;1.70;80.70
14798;DHT22;7490;63.708;20.368;2023-02-26T02:42:52;1.60;80.60
14798;DHT22;7490;63.708;20.368;2023-02-26T02:45:37;1.50;80.70
14798;DHT22;7490;63.708;20.368;2023-02-26T02:48:21;1.50;80.90
14798;DHT22;7490;63.708;20.368;2023-02-26T02:50:56;1.60;81.00
14798;DHT22;7490;63.708;20.368;2023-02-26T02:53:39;1.60;81.00
14798;DHT22;7490;63.708;20.368;2023-02-26T02:56:18;1.60;81.00
14798;DHT22;7490;63.708;20.368;2023-02-26T02:59:02;1.70;81.10
14798;DHT22;7490;63.708;20.368;2023-02-26T03:01:32;1.80;81.20
14798;DHT22;7490;63.708;20.368;2023-02-26T03:04:00;2.00;81.10
14798;DHT22;7490;63.708;20.368;2023-02-26T03:06:27;2.00;80.90
14798;DHT22;7490;63.708;20.368;2023-02-26T03:08:53;1.90;80.60
14798;DHT22;7490;63.708;20.368;2023-02-26T03:11:20;1.70;80.30
14798;DHT22;7490;63.708;20.368;2023-02-26T03:13:47;1.60;80.00
14798;DHT22;7490;63.708;20.368;2023-02-26T03:22:16;1.20;80.50
14798;DHT22;7490;63.708;20.368;2023-02-26T03:24:56;1.20;80.90
14798;DHT22;7490;63.708;20.368;2023-02-26T03:27:33;1.20;81.20
14798;DHT22;7490;63.708;20.368;2023-02-26T03:35:24;1.50;81.30
14798;DHT22;7490;63.708;20.368;2023-02-26T03:37:55;1.50;81.30
14798;DHT22;7490;63.708;20.368;2023-02-26T03:40:33;1.60;81.30
14798;DHT22;7490;63.708;20.368;2023-02-26T03:43:06;1.70;81.30
14798;DHT22;7490;63.708;20.368;2023-02-26T03:45:34;1.70;81.10
14798;DHT22;7490;63.708;20.368;2023-02-26T03:48:04;1.80;81.10
14798;DHT22;7490;63.708;20.368;2023-02-26T03:50:35;1.90;81.00
14798;DHT22;7490;63.708;20.368;2023-02-26T03:53:06;2.00;81.00
14798;DHT22;7490;63.708;20.368;2023-02-26T03:55:50;2.00;81.00
14798;DHT22;7490;63.708;20.368;2023-02-26T03:58:18;2.00;81.00
14798;DHT22;7490;63.708;20.368;2023-02-26T04:00:46;2.00;81.00
14798;DHT22;7490;63.708;20.368;2023-02-26T04:03:20;2.00;81.00
14798;DHT22;7490;63.708;20.368;2023-02-26T04:05:51;2.10;81.00
14798;DHT22;7490;63.708;20.368;2023-02-26T04:08:17;2.10;80.90
14798;DHT22;7490;63.708;20.368;2023-02-26T04:10:50;2.10;81.60
14798;DHT22;7490;63.708;20.368;2023-02-26T04:13:17;2.10;80.80
14798;DHT22;7490;63.708;20.368;2023-02-26T04:15:42;2.10;80.70
14798;DHT22;7490;63.708;20.368;2023-02-26T04:18:08;2.10;80.70
14798;DHT22;7490;63.708;20.368;2023-02-26T04:20:34;2.20;80.80
14798;DHT22;7490;63.708;20.368;2023-02-26T04:22:59;2.20;80.80
14798;DHT22;7490;63.708;20.368;2023-02-26T04:25:25;2.20;80.80
14798;DHT22;7490;63.708;20.368;2023-02-26T04:27:51;2.20;80.80
14798;DHT22;7490;63.708;20.368;2023-02-26T04:30:17;2.20;80.90
14798;DHT22;7490;63.708;20.368;2023-02-26T04:32:42;2.20;80.80
14798;DHT22;7490;63.708;20.368;2023-02-26T04:35:08;2.20;80.70
14798;DHT22;7490;63.708;20.368;2023-02-26T04:37:34;2.50;80.90
14798;DHT22;7490;63.708;20.368;2023-02-26T04:39:59;2.30;80.70
14798;DHT22;7490;63.708;20.368;2023-02-26T04:42:25;2.30;80.60
14798;DHT22;7490;63.708;20.368;2023-02-26T04:44:51;2.30;80.60
14798;DHT22;7490;63.708;20.368;2023-02-26T04:47:16;2.30;80.50
14798;DHT22;7490;63.708;20.368;2023-02-26T04:49:42;2.30;80.60
14798;DHT22;7490;63.708;20.368;2023-02-26T04:52:08;2.30;80.60
14798;DHT22;7490;63.708;20.368;2023-02-26T04:54:34;2.40;80.70
14798;DHT22;7490;63.708;20.368;2023-02-26T04:57:00;2.30;80.60
14798;DHT22;7490;63.708;20.368;2023-02-26T04:59:26;2.30;80.60
14798;DHT22;7490;63.708;20.368;2023-02-26T05:01:52;2.30;80.60
14798;DHT22;7490;63.708;20.368;2023-02-26T05:04:17;2.30;80.60
14798;DHT22;7490;63.708;20.368;2023-02-26T05:06:43;2.20;80.60
14798;DHT22;7490;63.708;20.368;2023-02-26T05:09:09;2.20;80.70
14798;DHT22;7490;63.708;20.368;2023-02-26T05:11:34;2.20;80.80
14798;DHT22;7490;63.708;20.368;2023-02-26T05:14:00;2.10;80.70
14798;DHT22;7490;63.708;20.368;2023-02-26T05:16:26;2.10;80.60
14798;DHT22;7490;63.708;20.368;2023-02-26T05:18:51;2.10;80.70
14798;DHT22;7490;63.708;20.368;2023-02-26T05:21:17;2.10;80.80
14798;DHT22;7490;63.708;20.368;2023-02-26T05:23:43;2.10;80.80
14798;DHT22;7490;63.708;20.368;2023-02-26T05:26:09;2.30;80.90
14798;DHT22;7490;63.708;20.368;2023-02-26T05:28:34;2.10;80.80
14798;DHT22;7490;63.708;20.368;2023-02-26T05:31:01;2.10;80.80
14798;DHT22;7490;63.708;20.368;2023-02-26T05:33:27;2.10;80.70
14798;DHT22;7490;63.708;20.368;2023-02-26T05:35:53;2.10;80.60
14798;DHT22;7490;63.708;20.368;2023-02-26T05:38:18;2.10;80.60
14798;DHT22;7490;63.708;20.368;2023-02-26T05:40:44;2.10;80.70
14798;DHT22;7490;63.708;20.368;2023-02-26T05:43:10;2.10;81.30
14798;DHT22;7490;63.708;20.368;2023-02-26T05:45:36;2.10;80.60
14798;DHT22;7490;63.708;20.368;2023-02-26T05:48:02;2.10;80.50
14798;DHT22;7490;63.708;20.368;2023-02-26T05:50:27;2.00;80.40
14798;DHT22;7490;63.708;20.368;2023-02-26T05:52:55;2.00;80.40
14798;DHT22;7490;63.708;20.368;2023-02-26T05:55:21;2.00;80.40
14798;DHT22;7490;63.708;20.368;2023-02-26T05:57:46;2.00;80.40
14798;DHT22;7490;63.708;20.368;2023-02-26T06:00:12;2.00;80.30
14798;DHT22;7490;63.708;20.368;2023-02-26T06:02:39;2.00;80.40
14798;DHT22;7490;63.708;20.368;2023-02-26T06:05:05;2.20;80.60
14798;DHT22;7490;63.708;20.368;2023-02-26T06:07:31;1.90;80.40
14798;DHT22;7490;63.708;20.368;2023-02-26T06:09:57;1.90;80.40
14798;DHT22;7490;63.708;20.368;2023-02-26T06:12:22;1.90;80.50
14798;DHT22;7490;63.708;20.368;2023-02-26T06:14:48;1.90;80.40
14798;DHT22;7490;63.708;20.368;2023-02-26T06:17:14;1.80;80.20
14798;DHT22;7490;63.708;20.368;2023-02-26T06:19:39;1.80;80.40
14798;DHT22;7490;63.708;20.368;2023-02-26T06:22:05;1.90;80.50
14798;DHT22;7490;63.708;20.368;2023-02-26T06:24:30;1.90;80.60
14798;DHT22;7490;63.708;20.368;2023-02-26T06:26:56;1.80;80.60
14798;DHT22;7490;63.708;20.368;2023-02-26T06:29:22;1.80;80.60
14798;DHT22;7490;63.708;20.368;2023-02-26T06:31:48;1.90;81.20
14798;DHT22;7490;63.708;20.368;2023-02-26T06:34:14;1.90;80.60
14798;DHT22;7490;63.708;20.368;2023-02-26T06:36:40;2.00;80.70
14798;DHT22;7490;63.708;20.368;2023-02-26T06:39:06;2.00;80.70
14798;DHT22;7490;63.708;20.368;2023-02-26T06:41:32;2.00;80.70
14798;DHT22;7490;63.708;20.368;2023-02-26T06:43:58;2.10;80.70
14798;DHT22;7490;63.708;20.368;2023-02-26T06:46:24;2.10;80.80
14798;DHT22;7490;63.708;20.368;2023-02-26T06:48:49;2.20;80.70
14798;DHT22;7490;63.708;20.368;2023-02-26T06:51:15;2.40;80.80
14798;DHT22;7490;63.708;20.368;2023-02-26T06:53:41;2.30;80.80
14798;DHT22;7490;63.708;20.368;2023-02-26T06:56:07;2.30;80.00
14798;DHT22;7490;63.708;20.368;2023-02-26T06:58:33;2.40;80.80
14798;DHT22;7490;63.708;20.368;2023-02-26T07:00:59;2.50;80.70
14798;DHT22;7490;63.708;20.368;2023-02-26T07:03:25;2.50;80.50
14798;DHT22;7490;63.708;20.368;2023-02-26T07:05:50;2.60;80.40
14798;DHT22;7490;63.708;20.368;2023-02-26T07:08:16;2.70;80.40
14798;DHT22;7490;63.708;20.368;2023-02-26T07:10:42;2.70;80.10
14798;DHT22;7490;63.708;20.368;2023-02-26T07:13:08;2.70;79.90
14798;DHT22;7490;63.708;20.368;2023-02-26T07:15:33;2.70;79.90
14798;DHT22;7490;63.708;20.368;2023-02-26T07:17:59;2.80;79.90
14798;DHT22;7490;63.708;20.368;2023-02-26T07:20:26;2.90;79.90
14798;DHT22;7490;63.708;20.368;2023-02-26T07:22:51;3.00;79.80
14798;DHT22;7490;63.708;20.368;2023-02-26T07:25:17;3.10;79.60
14798;DHT22;7490;63.708;20.368;2023-02-26T07:27:43;3.30;79.20
14798;DHT22;7490;63.708;20.368;2023-02-26T07:30:09;3.10;79.00
14798;DHT22;7490;63.708;20.368;2023-02-26T07:32:35;3.10;79.30
14798;DHT22;7490;63.708;20.368;2023-02-26T07:35:01;3.20;78.80
14798;DHT22;7490;63.708;20.368;2023-02-26T07:37:27;3.20;78.70
14798;DHT22;7490;63.708;20.368;2023-02-26T07:39:53;3.20;78.60
14798;DHT22;7490;63.708;20.368;2023-02-26T07:42:19;3.30;78.50
14798;DHT22;7490;63.708;20.368;2023-02-26T07:44:45;3.10;78.30
14798;DHT22;7490;63.708;20.368;2023-02-26T07:47:11;3.10;78.10
14798;DHT22;7490;63.708;20.368;2023-02-26T07:49:37;3.10;78.00
14798;DHT22;7490;63.708;20.368;2023-02-26T07:52:04;3.10;77.80
14798;DHT22;7490;63.708;20.368;2023-02-26T07:54:32;3.10;77.80
14798;DHT22;7490;63.708;20.368;2023-02-26T07:56:57;3.10;77.70
14798;DHT22;7490;63.708;20.368;2023-02-26T07:59:23;3.20;77.90
14798;DHT22;7490;63.708;20.368;2023-02-26T08:01:49;4.40;80.80
14798;DHT22;7490;63.708;20.368;2023-02-26T08:04:15;5.10;78.80
14798;DHT22;7490;63.708;20.368;2023-02-26T08:06:40;5.40;76.60
14798;DHT22;7490;63.708;20.368;2023-02-26T08:09:06;5.80;75.60
14798;DHT22;7490;63.708;20.368;2023-02-26T08:11:32;5.90;74.10
14798;DHT22;7490;63.708;20.368;2023-02-26T08:14:01;5.70;73.20
14798;DHT22;7490;63.708;20.368;2023-02-26T08:16:27;5.50;72.30
14798;DHT22;7490;63.708;20.368;2023-02-26T08:18:53;5.10;72.10
14798;DHT22;7490;63.708;20.368;2023-02-26T08:21:18;4.80;72.40
14798;DHT22;7490;63.708;20.368;2023-02-26T08:23:44;4.50;72.50
14798;DHT22;7490;63.708;20.368;2023-02-26T08:26:11;4.20;72.60
14798;DHT22;7490;63.708;20.368;2023-02-26T08:28:38;4.20;73.00
14798;DHT22;7490;63.708;20.368;2023-02-26T08:31:04;3.80;73.10
14798;DHT22;7490;63.708;20.368;2023-02-26T08:33:31;3.60;73.50
14798;DHT22;7490;63.708;20.368;2023-02-26T08:35:57;3.40;73.80
14798;DHT22;7490;63.708;20.368;2023-02-26T08:38:27;3.40;74.90
14798;DHT22;7490;63.708;20.368;2023-02-26T08:40:53;3.80;76.60
14798;DHT22;7490;63.708;20.368;2023-02-26T08:43:20;5.00;78.10
14798;DHT22;7490;63.708;20.368;2023-02-26T08:45:46;6.80;77.10
14798;DHT22;7490;63.708;20.368;2023-02-26T08:48:12;8.70;74.30
14798;DHT22;7490;63.708;20.368;2023-02-26T08:50:38;10.30;71.90
14798;DHT22;7490;63.708;20.368;2023-02-26T08:53:05;11.60;68.30
14798;DHT22;7490;63.708;20.368;2023-02-26T08:55:31;12.60;65.80
14798;DHT22;7490;63.708;20.368;2023-02-26T08:57:57;13.50;63.60
14798;DHT22;7490;63.708;20.368;2023-02-26T09:00:23;14.20;61.90
14798;DHT22;7490;63.708;20.368;2023-02-26T09:02:49;14.90;59.90
14798;DHT22;7490;63.708;20.368;2023-02-26T09:05:15;15.40;58.30
14798;DHT22;7490;63.708;20.368;2023-02-26T09:07:42;15.30;56.00
14798;DHT22;7490;63.708;20.368;2023-02-26T09:10:08;14.50;54.60
14798;DHT22;7490;63.708;20.368;2023-02-26T09:12:34;13.60;55.40
14798;DHT22;7490;63.708;20.368;2023-02-26T09:15:07;13.30;57.60
14798;DHT22;7490;63.708;20.368;2023-02-26T09:17:33;13.90;57.90
14798;DHT22;7490;63.708;20.368;2023-02-26T09:19:59;14.70;57.20
14798;DHT22;7490;63.708;20.368;2023-02-26T09:22:25;15.40;55.80
14798;DHT22;7490;63.708;20.368;2023-02-26T09:24:50;16.20;54.60
14798;DHT22;7490;63.708;20.368;2023-02-26T09:27:16;16.90;53.20
14798;DHT22;7490;63.708;20.368;2023-02-26T09:29:42;17.50;52.00
14798;DHT22;7490;63.708;20.368;2023-02-26T09:32:08;17.90;50.90
14798;DHT22;7490;63.708;20.368;2023-02-26T09:34:35;18.20;49.90
14798;DHT22;7490;63.708;20.368;2023-02-26T09:37:02;18.50;49.10
14798;DHT22;7490;63.708;20.368;2023-02-26T09:39:28;18.60;48.20
14798;DHT22;7490;63.708;20.368;2023-02-26T09:41:55;18.80;47.70
14798;DHT22;7490;63.708;20.368;2023-02-26T09:44:32;18.90;47.10
14798;DHT22;7490;63.708;20.368;2023-02-26T09:47:12;19.00;45.90
14798;DHT22;7490;63.708;20.368;2023-02-26T09:49:47;19.20;45.90
14798;DHT22;7490;63.708;20.368;2023-02-26T09:52:21;19.20;45.20
14798;DHT22;7490;63.708;20.368;2023-02-26T09:54:52;19.00;44.50
14798;DHT22;7490;63.708;20.368;2023-02-26T09:59:52;19.00;44.50
14798;DHT22;7490;63.708;20.368;2023-02-26T10:02:32;19.10;45.10
14798;DHT22;7490;63.708;20.368;2023-02-26T10:07:42;19.40;43.60
14798;DHT22;7490;63.708;20.368;2023-02-26T10:12:55;19.50;42.30
14798;DHT22;7490;63.708;20.368;2023-02-26T10:15:29;19.60;42.70
14798;DHT22;7490;63.708;20.368;2023-02-26T10:18:14;19.70;41.70
14798;DHT22;7490;63.708;20.368;2023-02-26T10:21:35;19.80;41.20
14798;DHT22;7490;63.708;20.368;2023-02-26T10:23:59;19.80;41.10
14798;DHT22;7490;63.708;20.368;2023-02-26T10:27:13;19.80;41.30
14798;DHT22;7490;63.708;20.368;2023-02-26T10:29:21;19.70;40.80
14798;DHT22;7490;63.708;20.368;2023-02-26T10:34:56;19.70;40.60
14798;DHT22;7490;63.708;20.368;2023-02-26T10:43:41;19.70;40.50
14798;DHT22;7490;63.708;20.368;2023-02-26T10:51:37;19.80;40.00
14798;DHT22;7490;63.708;20.368;2023-02-26T10:54:14;19.50;39.90
14798;DHT22;7490;63.708;20.368;2023-02-26T10:56:41;19.80;39.30
14798;DHT22;7490;63.708;20.368;2023-02-26T10:59:07;19.80;39.50
14798;DHT22;7490;63.708;20.368;2023-02-26T11:01:32;19.90;39.40
14798;DHT22;7490;63.708;20.368;2023-02-26T11:04:02;19.90;39.00
14798;DHT22;7490;63.708;20.368;2023-02-26T11:06:38;19.80;38.60
14798;DHT22;7490;63.708;20.368;2023-02-26T11:14:19;19.50;38.40
14798;DHT22;7490;63.708;20.368;2023-02-26T11:16:57;19.40;38.60
14798;DHT22;7490;63.708;20.368;2023-02-26T11:19:28;19.50;38.40
14798;DHT22;7490;63.708;20.368;2023-02-26T11:21:55;19.50;38.20
14798;DHT22;7490;63.708;20.368;2023-02-26T11:26:53;19.40;37.70
14798;DHT22;7490;63.708;20.368;2023-02-26T11:29:21;19.30;37.80
14798;DHT22;7490;63.708;20.368;2023-02-26T11:31:51;19.20;37.90
14798;DHT22;7490;63.708;20.368;2023-02-26T11:34:22;19.00;37.90
14798;DHT22;7490;63.708;20.368;2023-02-26T11:36:49;18.80;37.90
14798;DHT22;7490;63.708;20.368;2023-02-26T11:39:22;18.50;38.20
14798;DHT22;7490;63.708;20.368;2023-02-26T11:41:50;18.20;38.10
14798;DHT22;7490;63.708;20.368;2023-02-26T11:46:54;16.40;39.40
14798;DHT22;7490;63.708;20.368;2023-02-26T11:49:23;15.30;40.60
14798;DHT22;7490;63.708;20.368;2023-02-26T11:54:37;13.20;43.10
14798;DHT22;7490;63.708;20.368;2023-02-26T11:57:18;12.50;44.50
14798;DHT22;7490;63.708;20.368;2023-02-26T11:59:48;11.80;45.50
14798;DHT22;7490;63.708;20.368;2023-02-26T12:02:18;11.20;46.30
14798;DHT22;7490;63.708;20.368;2023-02-26T12:04:46;10.70;47.20
14798;DHT22;7490;63.708;20.368;2023-02-26T12:07:15;10.30;48.00
14798;DHT22;7490;63.708;20.368;2023-02-26T12:09:41;9.90;48.50
14798;DHT22;7490;63.708;20.368;2023-02-26T12:20:28;9.00;50.80
14798;DHT22;7490;63.708;20.368;2023-02-26T12:47:35;6.70;54.40
14798;DHT22;7490;63.708;20.368;2023-02-26T12:53:00;6.40;54.90
14798;DHT22;7490;63.708;20.368;2023-02-26T13:12:50;5.50;57.50
14798;DHT22;7490;63.708;20.368;2023-02-26T13:15:31;5.10;57.80
14798;DHT22;7490;63.708;20.368;2023-02-26T13:20:58;5.50;58.50
14798;DHT22;7490;63.708;20.368;2023-02-26T13:23:30;5.10;58.60
14798;DHT22;7490;63.708;20.368;2023-02-26T13:26:04;5.10;58.90
14798;DHT22;7490;63.708;20.368;2023-02-26T13:28:41;5.00;59.20
14798;DHT22;7490;63.708;20.368;2023-02-26T13:31:13;5.00;59.40
14798;DHT22;7490;63.708;20.368;2023-02-26T13:33:41;5.00;59.60
14798;DHT22;7490;63.708;20.368;2023-02-26T13:36:08;5.00;59.80
14798;DHT22;7490;63.708;20.368;2023-02-26T13:38:48;5.00;59.90
14798;DHT22;7490;63.708;20.368;2023-02-26T13:52:29;4.70;61.00
14798;DHT22;7490;63.708;20.368;2023-02-26T13:54:55;4.60;61.40
14798;DHT22;7490;63.708;20.368;2023-02-26T14:02:47;4.30;62.20
14798;DHT22;7490;63.708;20.368;2023-02-26T14:08:24;4.10;62.80
14798;DHT22;7490;63.708;20.368;2023-02-26T14:13:21;4.00;63.30
14798;DHT22;7490;63.708;20.368;2023-02-26T14:16:11;3.90;63.50
14798;DHT22;7490;63.708;20.368;2023-02-26T14:18:49;3.80;63.80
14798;DHT22;7490;63.708;20.368;2023-02-26T14:24:54;3.70;64.10
14798;DHT22;7490;63.708;20.368;2023-02-26T14:27:34;3.70;64.10
14798;DHT22;7490;63.708;20.368;2023-02-26T14:35:09;3.60;64.50
14798;DHT22;7490;63.708;20.368;2023-02-26T14:37:37;3.50;64.70
14798;DHT22;7490;63.708;20.368;2023-02-26T14:40:06;3.50;64.80
14798;DHT22;7490;63.708;20.368;2023-02-26T14:42:36;3.40;64.90
14798;DHT22;7490;63.708;20.368;2023-02-26T14:45:28;3.40;65.10
14798;DHT22;7490;63.708;20.368;2023-02-26T14:47:59;3.30;65.20
14798;DHT22;7490;63.708;20.368;2023-02-26T14:50:30;3.30;65.40
14798;DHT22;7490;63.708;20.368;2023-02-26T15:00:55;3.20;66.40
14798;DHT22;7490;63.708;20.368;2023-02-26T15:09:32;3.10;66.80
14798;DHT22;7490;63.708;20.368;2023-02-26T15:15:11;3.00;67.50
14798;DHT22;7490;63.708;20.368;2023-02-26T15:25:31;2.80;68.20
14798;DHT22;7490;63.708;20.368;2023-02-26T15:27:59;2.70;68.30
14798;DHT22;7490;63.708;20.368;2023-02-26T15:30:26;2.70;68.50
14798;DHT22;7490;63.708;20.368;2023-02-26T15:33:04;2.60;68.70
14798;DHT22;7490;63.708;20.368;2023-02-26T15:35:32;2.60;69.10
14798;DHT22;7490;63.708;20.368;2023-02-26T15:38:01;2.50;69.30
14798;DHT22;7490;63.708;20.368;2023-02-26T15:40:31;2.50;69.70
14798;DHT22;7490;63.708;20.368;2023-02-26T15:42:58;2.50;69.90
14798;DHT22;7490;63.708;20.368;2023-02-26T15:48:04;2.60;70.40
14798;DHT22;7490;63.708;20.368;2023-02-26T15:50:34;2.60;70.50
14798;DHT22;7490;63.708;20.368;2023-02-26T15:53:02;2.60;70.60
14798;DHT22;7490;63.708;20.368;2023-02-26T15:55:37;2.70;70.70
14798;DHT22;7490;63.708;20.368;2023-02-26T15:58:06;2.70;71.00
14798;DHT22;7490;63.708;20.368;2023-02-26T16:00:34;2.80;71.00
14798;DHT22;7490;63.708;20.368;2023-02-26T16:03:00;2.80;71.10
14798;DHT22;7490;63.708;20.368;2023-02-26T16:05:27;2.80;71.10
14798;DHT22;7490;63.708;20.368;2023-02-26T16:07:54;2.90;71.50
14798;DHT22;7490;63.708;20.368;2023-02-26T16:10:35;2.90;71.60
14798;DHT22;7490;63.708;20.368;2023-02-26T16:13:05;2.90;71.90
14798;DHT22;7490;63.708;20.368;2023-02-26T16:15:35;3.20;72.10
14798;DHT22;7490;63.708;20.368;2023-02-26T16:18:05;3.00;72.20
14798;DHT22;7490;63.708;20.368;2023-02-26T16:20:40;3.00;72.40
14798;DHT22;7490;63.708;20.368;2023-02-26T16:23:16;3.00;73.20
14798;DHT22;7490;63.708;20.368;2023-02-26T16:25:58;3.00;72.80
14798;DHT22;7490;63.708;20.368;2023-02-26T16:28:30;3.10;73.00
14798;DHT22;7490;63.708;20.368;2023-02-26T16:30:59;3.10;73.10
14798;DHT22;7490;63.708;20.368;2023-02-26T16:33:26;3.10;73.10
14798;DHT22;7490;63.708;20.368;2023-02-26T16:36:03;3.10;73.40
14798;DHT22;7490;63.708;20.368;2023-02-26T16:38:44;3.30;73.80
14798;DHT22;7490;63.708;20.368;2023-02-26T16:41:11;3.20;73.90
14798;DHT22;7490;63.708;20.368;2023-02-26T16:46:12;3.20;74.00
14798;DHT22;7490;63.708;20.368;2023-02-26T16:48:46;3.20;74.00
14798;DHT22;7490;63.708;20.368;2023-02-26T16:51:22;3.30;74.20
14798;DHT22;7490;63.708;20.368;2023-02-26T16:53:53;3.30;74.40
14798;DHT22;7490;63.708;20.368;2023-02-26T16:56:23;3.30;74.40
14798;DHT22;7490;63.708;20.368;2023-02-26T16:59:02;3.30;74.50
14798;DHT22;7490;63.708;20.368;2023-02-26T17:01:51;3.30;74.70
14798;DHT22;7490;63.708;20.368;2023-02-26T17:04:21;3.30;74.80
14798;DHT22;7490;63.708;20.368;2023-02-26T17:06:47;3.30;74.80
14798;DHT22;7490;63.708;20.368;2023-02-26T17:09:34;3.50;74.90
14798;DHT22;7490;63.708;20.368;2023-02-26T17:12:16;3.40;75.10
14798;DHT22;7490;63.708;20.368;2023-02-26T17:14:45;3.40;75.10
14798;DHT22;7490;63.708;20.368;2023-02-26T17:17:11;3.40;75.10
14798;DHT22;7490;63.708;20.368;2023-02-26T17:19:37;3.70;75.40
14798;DHT22;7490;63.708;20.368;2023-02-26T17:22:03;3.50;75.30
14798;DHT22;7490;63.708;20.368;2023-02-26T17:24:33;3.50;75.40
14798;DHT22;7490;63.708;20.368;2023-02-26T17:27:02;3.50;75.50
14798;DHT22;7490;63.708;20.368;2023-02-26T17:29:40;3.50;75.50
14798;DHT22;7490;63.708;20.368;2023-02-26T17:32:14;3.50;75.50
14798;DHT22;7490;63.708;20.368;2023-02-26T17:34:40;3.60;75.70
14798;DHT22;7490;63.708;20.368;2023-02-26T17:37:12;3.60;75.70
14798;DHT22;7490;63.708;20.368;2023-02-26T17:39:39;3.60;75.80
14798;DHT22;7490;63.708;20.368;2023-02-26T17:42:13;3.60;75.80
14798;DHT22;7490;63.708;20.368;2023-02-26T17:44:39;3.60;75.90
14798;DHT22;7490;63.708;20.368;2023-02-26T17:47:08;3.60;75.90
14798;DHT22;7490;63.708;20.368;2023-02-26T17:49:34;3.60;76.00
14798;DHT22;7490;63.708;20.368;2023-02-26T17:51:59;3.70;76.10
14798;DHT22;7490;63.708;20.368;2023-02-26T17:54:25;3.90;76.30
14798;DHT22;7490;63.708;20.368;2023-02-26T17:56:50;3.70;76.20
14798;DHT22;7490;63.708;20.368;2023-02-26T17:59:16;3.70;76.30
14798;DHT22;7490;63.708;20.368;2023-02-26T18:01:42;3.70;76.40
14798;DHT22;7490;63.708;20.368;2023-02-26T18:04:07;3.80;76.50
14798;DHT22;7490;63.708;20.368;2023-02-26T18:06:35;3.80;76.50
14798;DHT22;7490;63.708;20.368;2023-02-26T18:09:02;3.80;76.60
14798;DHT22;7490;63.708;20.368;2023-02-26T18:11:30;4.10;76.90
14798;DHT22;7490;63.708;20.368;2023-02-26T18:13:57;3.80;76.70
14798;DHT22;7490;63.708;20.368;2023-02-26T18:16:35;3.90;76.80
14798;DHT22;7490;63.708;20.368;2023-02-26T18:19:02;3.90;76.90
14798;DHT22;7490;63.708;20.368;2023-02-26T18:21:28;4.10;77.10
14798;DHT22;7490;63.708;20.368;2023-02-26T18:23:54;3.90;76.90
14798;DHT22;7490;63.708;20.368;2023-02-26T18:26:22;4.10;77.10
14798;DHT22;7490;63.708;20.368;2023-02-26T18:28:49;4.10;77.20
14798;DHT22;7490;63.708;20.368;2023-02-26T18:31:16;4.00;77.10
14798;DHT22;7490;63.708;20.368;2023-02-26T18:33:42;4.00;77.00
14798;DHT22;7490;63.708;20.368;2023-02-26T18:36:30;4.20;77.10
14798;DHT22;7490;63.708;20.368;2023-02-26T18:39:06;4.00;77.00
14798;DHT22;7490;63.708;20.368;2023-02-26T18:41:32;4.00;76.80
14798;DHT22;7490;63.708;20.368;2023-02-26T18:43:58;4.10;76.80
14798;DHT22;7490;63.708;20.368;2023-02-26T18:46:25;4.10;76.90
14798;DHT22;7490;63.708;20.368;2023-02-26T18:48:52;4.10;77.00
14798;DHT22;7490;63.708;20.368;2023-02-26T18:51:17;4.00;76.80
14798;DHT22;7490;63.708;20.368;2023-02-26T18:53:43;4.10;76.90
14798;DHT22;7490;63.708;20.368;2023-02-26T18:56:09;4.40;77.00
14798;DHT22;7490;63.708;20.368;2023-02-26T18:58:35;4.10;76.80
14798;DHT22;7490;63.708;20.368;2023-02-26T19:01:04;4.10;76.80
14798;DHT22;7490;63.708;20.368;2023-02-26T19:03:30;4.00;76.70
14798;DHT22;7490;63.708;20.368;2023-02-26T19:06:01;4.10;76.80
14798;DHT22;7490;63.708;20.368;2023-02-26T19:08:28;4.10;76.80
14798;DHT22;7490;63.708;20.368;2023-02-26T19:10:56;4.10;76.90
14798;DHT22;7490;63.708;20.368;2023-02-26T19:13:22;4.10;76.90
14798;DHT22;7490;63.708;20.368;2023-02-26T19:15:48;4.10;76.90
14798;DHT22;7490;63.708;20.368;2023-02-26T19:18:15;4.10;77.10
14798;DHT22;7490;63.708;20.368;2023-02-26T19:20:41;4.10;77.80